createdAt,value
2023-02-18T00:01:32.245Z,418.30
2023-02-18T00:06:30.342Z,441.70
2023-02-18T00:11:31.650Z,478.10
2023-02-18T00:16:28.931Z,473.10
2023-02-18T00:21:29.157Z,427.10
2023-02-18T00:26:27.352Z,390.00
2023-02-18T00:31:26.645Z,349.60
2023-02-18T00:36:27.086Z,319.00
2023-02-18T00:41:26.074Z,299.30
2023-02-18T00:46:26.256Z,270.80
2023-02-18T00:51:23.416Z,244.30
2023-02-18T00:56:22.561Z,226.30
2023-02-18T01:01:23.770Z,207.10
2023-02-18T01:06:21.057Z,272.80
2023-02-18T01:11:20.285Z,334.60
2023-02-18T01:16:19.589Z,327.10
2023-02-18T01:21:19.613Z,303.60
2023-02-18T01:26:18.783Z,290.80
2023-02-18T01:31:18.097Z,276.60
2023-02-18T01:36:17.099Z,260.20
2023-02-18T01:41:16.273Z,246.40
2023-02-18T01:46:14.485Z,232.20
2023-02-18T01:51:14.710Z,226.10
2023-02-18T01:56:12.887Z,209.20
2023-02-18T02:01:12.205Z,212.80
2023-02-18T02:06:11.361Z,199.60
2023-02-18T02:11:11.560Z,178.60
2023-02-18T02:16:11.048Z,176.10
2023-02-18T02:21:10.936Z,174.40
2023-02-18T02:26:10.171Z,169.30
2023-02-18T02:31:07.459Z,158.70
2023-02-18T02:36:07.939Z,149.90
2023-02-18T02:41:05.887Z,145.50
2023-02-18T02:46:05.300Z,140.00
2023-02-18T02:51:04.463Z,131.50
2023-02-18T02:56:03.562Z,127.00
2023-02-18T03:01:03.932Z,121.80
2023-02-18T03:06:04.050Z,116.70
2023-02-18T03:11:02.341Z,106.20
2023-02-18T03:16:00.693Z,103.80
2023-02-18T03:21:01.784Z,97.20
2023-02-18T03:25:59.097Z,93.80
2023-02-18T03:30:58.547Z,89.90
2023-02-18T03:35:57.713Z,86.40
2023-02-18T03:40:57.030Z,83.30
2023-02-18T03:45:56.412Z,81.80
2023-02-18T03:50:55.549Z,77.00
2023-02-18T03:55:54.851Z,75.00
2023-02-18T04:00:56.163Z,73.30
2023-02-18T04:05:53.476Z,70.20
2023-02-18T04:10:54.742Z,64.50
2023-02-18T04:15:53.047Z,63.30
2023-02-18T04:20:51.371Z,61.10
2023-02-18T04:25:51.685Z,60.90
2023-02-18T04:30:50.123Z,57.30
2023-02-18T04:35:49.362Z,55.50
2023-02-18T04:40:48.498Z,50.80
2023-02-18T04:45:47.701Z,48.80
2023-02-18T04:50:48.840Z,48.70
2023-02-18T04:55:46.158Z,44.90
2023-02-18T05:00:46.348Z,41.50
2023-02-18T05:05:46.496Z,43.20
2023-02-18T05:10:43.830Z,37.40
2023-02-18T05:15:43.161Z,36.30
2023-02-18T05:20:42.278Z,37.10
2023-02-18T05:25:44.622Z,34.50
2023-02-18T05:30:40.977Z,33.00
2023-02-18T05:35:41.125Z,32.00
2023-02-18T05:40:40.284Z,30.60
2023-02-18T05:45:38.422Z,28.70
2023-02-18T05:50:37.582Z,27.10
2023-02-18T05:55:36.923Z,26.90
2023-02-18T06:00:36.225Z,25.10
2023-02-18T06:05:35.644Z,24.20
2023-02-18T06:10:35.775Z,22.30
2023-02-18T06:15:34.098Z,20.90
2023-02-18T06:20:34.244Z,20.70
2023-02-18T06:25:34.655Z,19.60
2023-02-18T06:30:31.820Z,18.70
2023-02-18T06:35:30.961Z,17.20
2023-02-18T06:40:30.296Z,17.50
2023-02-18T06:45:30.430Z,15.10
2023-02-18T06:50:28.748Z,15.20
2023-02-18T06:55:27.897Z,14.90
2023-02-18T07:00:29.040Z,14.30
2023-02-18T07:05:27.378Z,13.30
2023-02-18T07:10:26.514Z,12.80
2023-02-18T07:15:24.625Z,12.90
2023-02-18T07:20:25.950Z,12.40
2023-02-18T07:25:25.281Z,10.60
2023-02-18T07:30:23.623Z,8.30
2023-02-18T07:35:23.749Z,8.30
2023-02-18T07:40:22.123Z,6.30
2023-02-18T07:45:20.254Z,6.20
2023-02-18T07:50:19.549Z,5.40
2023-02-18T07:55:18.863Z,8.20
2023-02-18T08:00:18.164Z,4.80
2023-02-18T08:05:16.505Z,4.60
2023-02-18T08:10:18.631Z,7.50
2023-02-18T08:15:16.943Z,4.60
2023-02-18T08:20:16.256Z,5.30
2023-02-18T08:25:27.662Z,7.40
2023-02-18T08:30:13.865Z,4.60
2023-02-18T08:35:13.143Z,7.10
2023-02-18T08:40:13.430Z,5.60
2023-02-18T08:45:11.707Z,7.10
2023-02-18T08:50:11.004Z,6.30
2023-02-18T08:55:10.316Z,6.70
2023-02-18T09:00:09.631Z,6.90
2023-02-18T09:05:09.929Z,8.00
2023-02-18T09:10:08.264Z,3.80
2023-02-18T09:15:06.375Z,4.00
2023-02-18T09:20:08.695Z,3.30
2023-02-18T09:25:06.964Z,4.80
2023-02-18T09:30:08.457Z,3.90
2023-02-18T09:35:04.574Z,4.00
2023-02-18T09:40:05.747Z,4.60
2023-02-18T09:45:03.936Z,3.80
2023-02-18T09:50:04.127Z,6.10
2023-02-18T09:55:02.248Z,6.90
2023-02-18T10:00:01.613Z,6.20
2023-02-18T10:05:00.704Z,7.90
2023-02-18T10:09:59.162Z,7.10
2023-02-18T10:14:58.251Z,9.50
2023-02-18T10:19:57.542Z,5.80
2023-02-18T10:24:56.829Z,4.20
2023-02-18T10:29:55.146Z,5.30
2023-02-18T10:34:57.762Z,6.70
2023-02-18T10:39:54.657Z,6.00
2023-02-18T10:44:54.781Z,4.80
2023-02-18T10:49:53.151Z,4.00
2023-02-18T10:54:54.327Z,4.20
2023-02-18T10:59:52.406Z,2.50
2023-02-18T11:04:49.796Z,37.60
2023-02-18T11:09:49.945Z,129.30
2023-02-18T11:14:48.069Z,59.60
2023-02-18T11:19:49.281Z,78.90
2023-02-18T11:24:46.476Z,70.20
2023-02-18T11:29:46.626Z,72.90
2023-02-18T11:34:45.958Z,66.20
2023-02-18T11:39:46.324Z,46.80
2023-02-18T11:44:44.457Z,44.50
2023-02-18T11:49:44.797Z,59.50
2023-02-18T11:54:44.110Z,196.30
2023-02-18T11:59:42.446Z,143.10
2023-02-18T12:04:41.681Z,76.30
2023-02-18T12:09:40.801Z,85.50
2023-02-18T12:14:40.383Z,200.90
2023-02-18T12:19:39.466Z,175.70
2023-02-18T12:24:38.631Z,121.70
2023-02-18T12:29:39.763Z,108.10
2023-02-18T12:34:37.078Z,36.20
2023-02-18T12:39:37.199Z,56.50
2023-02-18T12:44:35.487Z,41.90
2023-02-18T12:49:35.010Z,26.10
2023-02-18T12:54:35.217Z,24.10
2023-02-18T12:59:36.255Z,16.50
2023-02-18T13:04:33.126Z,3.70
2023-02-18T13:09:34.502Z,6.50
2023-02-18T13:14:31.858Z,2.90
2023-02-18T13:19:30.215Z,5.00
2023-02-18T13:24:29.177Z,9.10
2023-02-18T13:29:29.748Z,12.30
2023-02-18T13:34:27.678Z,13.90
2023-02-18T13:39:27.009Z,9.50
2023-02-18T13:44:27.339Z,5.90
2023-02-18T13:49:26.483Z,2.70
2023-02-18T13:54:27.076Z,2.60
2023-02-18T13:59:24.058Z,4.60
2023-02-18T14:04:23.201Z,5.70
2023-02-18T14:09:22.490Z,3.70
2023-02-18T14:14:22.806Z,5.80
2023-02-18T14:19:21.114Z,3.90
2023-02-18T14:24:21.480Z,3.60
2023-02-18T14:29:19.599Z,4.00
2023-02-18T14:34:18.926Z,5.50
2023-02-18T14:39:19.320Z,8.60
2023-02-18T14:44:18.666Z,6.60
2023-02-18T14:49:17.880Z,18.50
2023-02-18T14:54:15.840Z,7.50
2023-02-18T14:59:17.230Z,4.90
2023-02-18T15:04:15.685Z,11.90
2023-02-18T15:09:13.565Z,7.10
2023-02-18T15:14:13.791Z,6.80
2023-02-18T15:19:13.555Z,5.70
2023-02-18T15:24:12.095Z,2.80
2023-02-18T15:29:11.572Z,6.60
2023-02-18T15:34:08.669Z,62.40
2023-02-18T15:39:09.532Z,14.20
2023-02-18T15:44:07.862Z,16.00
2023-02-18T15:49:10.158Z,4.40
2023-02-18T15:54:06.466Z,5.70
2023-02-18T15:59:05.960Z,5.00
2023-02-18T16:04:09.242Z,10.30
2023-02-18T16:09:04.428Z,26.70
2023-02-18T16:14:04.648Z,28.60
2023-02-18T16:19:06.972Z,13.20
2023-02-18T16:24:02.071Z,8.10
2023-02-18T16:29:01.739Z,6.00
2023-02-18T16:34:01.034Z,13.30
2023-02-18T16:39:02.054Z,40.30
2023-02-18T16:44:00.624Z,40.40
2023-02-18T16:48:58.606Z,53.70
2023-02-18T16:53:57.822Z,18.60
2023-02-18T16:58:57.112Z,11.20
2023-02-18T17:03:56.634Z,10.70
2023-02-18T17:08:55.573Z,6.80
2023-02-18T17:13:54.795Z,35.60
2023-02-18T17:18:54.026Z,36.30
2023-02-18T17:23:55.530Z,34.30
2023-02-18T17:28:52.571Z,135.20
2023-02-18T17:33:51.936Z,236.20
2023-02-18T17:38:51.001Z,14.90
2023-02-18T17:43:51.349Z,14.40
2023-02-18T17:48:49.600Z,19.20
2023-02-18T17:53:48.969Z,13.10
2023-02-18T17:58:49.110Z,18.80
2023-02-18T18:03:48.489Z,12.10
2023-02-18T18:08:46.691Z,9.90
2023-02-18T18:13:44.882Z,10.00
2023-02-18T18:18:44.089Z,13.00
2023-02-18T18:23:44.248Z,11.50
2023-02-18T18:28:42.415Z,6.90
2023-02-18T18:33:42.600Z,9.40
2023-02-18T18:38:41.489Z,6.10
2023-02-18T18:43:40.712Z,6.50
2023-02-18T18:48:40.219Z,8.00
2023-02-18T18:53:53.941Z,52.80
2023-02-18T18:58:40.599Z,19.20
2023-02-18T19:03:39.004Z,40.90
2023-02-18T19:08:37.197Z,50.80
2023-02-18T19:13:36.454Z,38.80
2023-02-18T19:18:36.562Z,27.40
2023-02-18T19:23:35.045Z,20.00
2023-02-18T19:28:35.264Z,37.00
2023-02-18T19:33:32.514Z,23.70
2023-02-18T19:38:31.755Z,18.80
2023-02-18T19:43:33.990Z,25.00
2023-02-18T19:48:31.112Z,21.00
2023-02-18T19:53:30.344Z,25.50
2023-02-18T19:58:30.577Z,20.40
2023-02-18T20:03:28.760Z,19.60
2023-02-18T20:08:27.932Z,10.70
2023-02-18T20:13:27.848Z,13.30
2023-02-18T20:18:27.325Z,25.70
2023-02-18T20:23:24.181Z,30.10
2023-02-18T20:28:23.731Z,18.90
2023-02-18T20:33:24.671Z,24.80
2023-02-18T20:38:23.132Z,30.50
2023-02-18T20:43:23.377Z,9.80
2023-02-18T20:48:21.484Z,12.40
2023-02-18T20:53:21.434Z,28.60
2023-02-18T20:58:20.997Z,19.00
2023-02-18T21:03:20.029Z,24.20
2023-02-18T21:08:20.327Z,12.30
2023-02-18T21:13:18.530Z,9.90
2023-02-18T21:18:16.872Z,14.80
2023-02-18T21:23:16.088Z,9.20
2023-02-18T21:28:16.356Z,9.60
2023-02-18T21:33:15.230Z,7.60
2023-02-18T21:38:15.439Z,8.50
2023-02-18T21:43:13.833Z,9.20
2023-02-18T21:48:12.909Z,28.60
2023-02-18T21:53:11.153Z,28.00
2023-02-18T21:58:10.396Z,23.10
2023-02-18T22:03:09.914Z,27.40
2023-02-18T22:08:08.783Z,27.60
2023-02-18T22:13:09.160Z,25.50
2023-02-18T22:18:07.271Z,14.40
2023-02-18T22:23:08.437Z,31.50
2023-02-18T22:28:07.399Z,18.20
2023-02-18T22:33:04.848Z,34.60
2023-02-18T22:38:07.024Z,24.50
2023-02-18T22:43:04.212Z,13.90
2023-02-18T22:48:02.392Z,54.50
2023-02-18T22:53:02.592Z,45.40
2023-02-18T22:58:00.734Z,39.20
2023-02-18T23:03:00.906Z,38.50
2023-02-18T23:07:58.075Z,88.50
2023-02-18T23:12:59.292Z,127.10
2023-02-18T23:17:57.547Z,74.30
2023-02-18T23:22:56.728Z,109.00
2023-02-18T23:27:57.916Z,269.30
2023-02-18T23:32:55.098Z,125.30
2023-02-18T23:37:54.276Z,88.30
2023-02-18T23:42:53.453Z,100.30
2023-02-18T23:47:53.628Z,71.60
2023-02-18T23:52:51.819Z,108.80
2023-02-18T23:57:50.996Z,96.10
